createdAt,value
2018-04-22T00:00:40.028Z,81.96
2018-04-22T00:01:39.905Z,82.15
2018-04-22T00:02:40.040Z,82.15
2018-04-22T00:03:39.869Z,82.43
2018-04-22T00:04:39.953Z,82.34
2018-04-22T00:05:39.826Z,83.20
2018-04-22T00:06:39.971Z,82.53
2018-04-22T00:07:39.786Z,82.73
2018-04-22T00:08:39.887Z,83.01
2018-04-22T00:09:39.741Z,82.63
2018-04-22T00:10:39.798Z,82.92
2018-04-22T00:11:39.701Z,82.92
2018-04-22T00:12:39.802Z,83.01
2018-04-22T00:13:39.663Z,82.15
2018-04-22T00:14:39.715Z,81.54
2018-04-22T00:15:39.619Z,82.01
2018-04-22T00:16:39.730Z,82.87
2018-04-22T00:17:39.577Z,82.68
2018-04-22T00:18:39.640Z,82.87
2018-04-22T00:19:39.539Z,83.06
2018-04-22T00:20:39.658Z,83.64
2018-04-22T00:21:39.497Z,83.54
2018-04-22T00:22:39.569Z,83.64
2018-04-22T00:23:39.455Z,83.45
2018-04-22T00:24:39.583Z,83.36
2018-04-22T00:25:39.415Z,83.64
2018-04-22T00:26:39.496Z,82.68
2018-04-22T00:27:39.372Z,83.93
2018-04-22T00:28:39.510Z,83.93
2018-04-22T00:29:39.330Z,83.54
2018-04-22T00:30:39.419Z,83.54
2018-04-22T00:31:39.297Z,83.64
2018-04-22T00:32:39.434Z,83.83
2018-04-22T00:33:39.247Z,84.02
2018-04-22T00:34:39.345Z,84.12
2018-04-22T00:35:39.207Z,84.02
2018-04-22T00:36:39.360Z,84.79
2018-04-22T00:37:39.167Z,84.79
2018-04-22T00:38:39.271Z,84.22
2018-04-22T00:39:39.124Z,84.41
2018-04-22T00:40:39.284Z,84.31
2018-04-22T00:41:39.084Z,84.50
2018-04-22T00:42:39.196Z,85.13
2018-04-22T00:43:39.043Z,85.22
2018-04-22T00:44:39.211Z,84.84
2018-04-22T00:45:39.002Z,85.89
2018-04-22T00:46:39.124Z,86.18
2018-04-22T00:47:38.961Z,85.51
2018-04-22T00:48:39.141Z,86.08
2018-04-22T00:49:38.918Z,85.51
2018-04-22T00:50:39.051Z,85.22
2018-04-22T00:51:38.880Z,85.89
2018-04-22T00:52:38.966Z,86.18
2018-04-22T00:53:38.835Z,86.18
2018-04-22T00:54:38.980Z,86.28
2018-04-22T00:55:38.795Z,86.57
2018-04-22T00:56:38.889Z,86.18
2018-04-22T00:57:38.753Z,86.94
2018-04-22T00:58:38.902Z,86.85
2018-04-22T00:59:38.720Z,86.85
2018-04-22T01:00:38.813Z,86.66
2018-04-22T01:01:38.669Z,86.18
2018-04-22T01:02:38.827Z,86.47
2018-04-22T01:03:38.628Z,86.37
2018-04-22T01:04:38.741Z,86.76
2018-04-22T01:05:38.583Z,86.18
2018-04-22T01:06:38.756Z,85.99
2018-04-22T01:07:38.544Z,86.57
2018-04-22T01:08:38.664Z,86.47
2018-04-22T01:09:38.500Z,86.47
2018-04-22T01:10:38.677Z,86.08
2018-04-22T01:11:38.459Z,86.08
2018-04-22T01:12:38.589Z,86.76
2018-04-22T01:13:38.418Z,86.66
2018-04-22T01:14:38.605Z,86.37
2018-04-22T01:15:38.375Z,86.37
2018-04-22T01:16:38.519Z,87.04
2018-04-22T01:17:38.333Z,86.47
2018-04-22T01:18:38.531Z,86.57
2018-04-22T01:19:38.292Z,87.04
2018-04-22T01:20:38.341Z,86.85
2018-04-22T01:21:38.252Z,86.94
2018-04-22T01:22:38.254Z,87.04
2018-04-22T01:23:38.209Z,86.94
2018-04-22T01:24:38.267Z,87.04
2018-04-22T01:25:38.171Z,87.71
2018-04-22T01:26:38.180Z,87.33
2018-04-22T01:27:38.126Z,87.14
2018-04-22T01:28:38.193Z,87.23
2018-04-22T01:29:38.089Z,87.33
2018-04-22T01:30:38.112Z,87.14
2018-04-22T01:31:38.044Z,86.76
2018-04-22T01:32:38.119Z,87.23
2018-04-22T01:33:37.998Z,87.23
2018-04-22T01:34:38.036Z,87.14
2018-04-22T01:35:37.961Z,86.76
2018-04-22T01:36:38.046Z,87.71
2018-04-22T01:37:37.915Z,87.71
2018-04-22T01:38:37.965Z,88.00
2018-04-22T01:39:37.875Z,87.71
2018-04-22T01:40:37.974Z,88.09
2018-04-22T01:41:37.832Z,87.71
2018-04-22T01:42:37.886Z,87.23
2018-04-22T01:43:37.799Z,88.00
2018-04-22T01:44:37.902Z,87.33
2018-04-22T01:45:37.751Z,87.33
2018-04-22T01:46:37.811Z,87.33
2018-04-22T01:47:37.708Z,87.43
2018-04-22T01:48:37.829Z,87.33
2018-04-22T01:49:37.670Z,87.14
2018-04-22T01:50:37.738Z,87.52
2018-04-22T01:51:37.624Z,87.90
2018-04-22T01:52:37.652Z,88.19
2018-04-22T01:53:37.581Z,88.38
2018-04-22T01:54:37.668Z,88.48
2018-04-22T01:55:37.539Z,88.19
2018-04-22T01:56:37.579Z,88.57
2018-04-22T01:57:37.496Z,88.38
2018-04-22T01:58:37.592Z,88.09
2018-04-22T01:59:37.454Z,88.38
2018-04-22T02:00:37.504Z,88.67
2018-04-22T02:01:37.410Z,88.29
2018-04-22T02:02:37.521Z,88.57
2018-04-22T02:03:37.367Z,88.95
2018-04-22T02:04:37.429Z,88.67
2018-04-22T02:05:37.329Z,88.38
2018-04-22T02:06:37.446Z,88.09
2018-04-22T02:07:37.290Z,87.81
2018-04-22T02:08:37.359Z,87.81
2018-04-22T02:09:37.241Z,88.57
2018-04-22T02:10:37.371Z,88.19
2018-04-22T02:11:37.198Z,88.38
2018-04-22T02:12:37.279Z,88.38
2018-04-22T02:13:37.157Z,88.57
2018-04-22T02:14:37.293Z,88.57
2018-04-22T02:15:37.113Z,88.48
2018-04-22T02:16:37.202Z,88.76
2018-04-22T02:17:37.073Z,88.48
2018-04-22T02:18:37.219Z,88.29
2018-04-22T02:19:37.031Z,88.38
2018-04-22T02:20:37.131Z,88.48
2018-04-22T02:21:36.985Z,87.90
2018-04-22T02:22:37.038Z,88.09
2018-04-22T02:23:36.944Z,88.48
2018-04-22T02:24:37.055Z,88.48
2018-04-22T02:25:36.901Z,88.57
2018-04-22T02:26:36.965Z,88.48
2018-04-22T02:27:36.865Z,89.05
2018-04-22T02:28:36.980Z,89.53
2018-04-22T02:29:36.816Z,89.15
2018-04-22T02:30:36.891Z,89.24
2018-04-22T02:31:36.779Z,89.24
2018-04-22T02:32:36.908Z,89.72
2018-04-22T02:33:36.732Z,89.43
2018-04-22T02:34:36.816Z,89.72
2018-04-22T02:35:36.689Z,89.72
2018-04-22T02:36:36.829Z,88.95
2018-04-22T02:37:36.646Z,89.24
2018-04-22T02:38:36.742Z,89.53
2018-04-22T02:39:36.604Z,89.05
2018-04-22T02:40:36.753Z,88.86
2018-04-22T02:41:36.565Z,89.72
2018-04-22T02:42:36.663Z,89.34
2018-04-22T02:43:36.595Z,89.34
2018-04-22T02:44:36.684Z,89.91
2018-04-22T02:45:36.475Z,89.91
2018-04-22T02:46:36.595Z,89.34
2018-04-22T02:47:36.435Z,90.20
2018-04-22T02:48:36.501Z,89.91
2018-04-22T02:49:36.392Z,90.10
2018-04-22T02:50:36.521Z,89.62
2018-04-22T02:51:36.350Z,89.15
2018-04-22T02:52:36.534Z,90.01
2018-04-22T02:53:36.310Z,89.91
2018-04-22T02:54:36.446Z,89.72
2018-04-22T02:55:36.264Z,89.72
2018-04-22T02:56:36.352Z,89.62
2018-04-22T02:57:36.220Z,90.01
2018-04-22T02:58:36.367Z,89.53
2018-04-22T02:59:36.177Z,89.62
2018-04-22T03:00:36.281Z,89.81
2018-04-22T03:01:36.132Z,89.72
2018-04-22T03:02:36.293Z,90.20
2018-04-22T03:03:36.092Z,89.72
2018-04-22T03:04:36.203Z,89.72
2018-04-22T03:05:36.046Z,89.53
2018-04-22T03:06:36.220Z,90.01
2018-04-22T03:07:36.009Z,89.81
2018-04-22T03:08:36.130Z,90.01
2018-04-22T03:09:35.971Z,89.34
2018-04-22T03:10:36.141Z,89.81
2018-04-22T03:11:35.920Z,89.53
2018-04-22T03:12:36.056Z,90.10
2018-04-22T03:13:35.876Z,90.01
2018-04-22T03:14:36.068Z,89.96
2018-04-22T03:15:35.835Z,89.67
2018-04-22T03:16:35.982Z,89.81
2018-04-22T03:17:35.792Z,90.25
2018-04-22T03:18:35.891Z,90.16
2018-04-22T03:19:35.756Z,90.16
2018-04-22T03:20:35.910Z,89.67
2018-04-22T03:21:35.709Z,89.67
2018-04-22T03:22:35.819Z,89.87
2018-04-22T03:23:35.663Z,90.06
2018-04-22T03:24:35.831Z,90.06
2018-04-22T03:25:35.625Z,89.77
2018-04-22T03:26:35.743Z,90.34
2018-04-22T03:27:35.580Z,90.34
2018-04-22T03:28:35.655Z,90.25
2018-04-22T03:29:35.535Z,90.63
2018-04-22T03:30:35.568Z,90.44
2018-04-22T03:31:35.500Z,90.06
2018-04-22T03:32:35.581Z,89.77
2018-04-22T03:33:35.451Z,89.67
2018-04-22T03:34:35.493Z,90.06
2018-04-22T03:35:35.410Z,89.87
2018-04-22T03:36:35.506Z,89.48
2018-04-22T03:37:35.366Z,89.96
2018-04-22T03:38:35.422Z,90.34
2018-04-22T03:39:35.328Z,90.73
2018-04-22T03:40:35.432Z,90.82
2018-04-22T03:41:35.274Z,90.92
2018-04-22T03:42:35.347Z,91.11
2018-04-22T03:43:35.240Z,90.44
2018-04-22T03:44:35.255Z,91.20
2018-04-22T03:45:35.193Z,91.30
2018-04-22T03:46:35.269Z,91.30
2018-04-22T03:47:35.152Z,91.39
2018-04-22T03:48:35.193Z,91.20
2018-04-22T03:49:35.107Z,91.59
2018-04-22T03:50:35.196Z,91.30
2018-04-22T03:51:35.069Z,91.59
2018-04-22T03:52:35.110Z,92.16
2018-04-22T03:53:35.026Z,92.16
2018-04-22T03:54:35.121Z,92.54
2018-04-22T03:55:34.983Z,92.54
2018-04-22T03:56:35.034Z,92.07
2018-04-22T03:57:34.938Z,92.07
2018-04-22T03:58:35.050Z,92.64
2018-04-22T03:59:34.895Z,92.07
2018-04-22T04:00:34.961Z,92.64
2018-04-22T04:01:34.855Z,91.97
2018-04-22T04:02:34.979Z,92.54
2018-04-22T04:03:34.810Z,92.16
2018-04-22T04:04:34.887Z,92.25
2018-04-22T04:05:34.768Z,92.54
2018-04-22T04:06:34.802Z,93.02
2018-04-22T04:07:34.726Z,92.54
2018-04-22T04:08:34.816Z,92.45
2018-04-22T04:09:34.680Z,92.45
2018-04-22T04:10:34.726Z,92.74
2018-04-22T04:11:34.638Z,92.45
2018-04-22T04:12:34.741Z,92.54
2018-04-22T04:13:34.596Z,92.83
2018-04-22T04:14:34.654Z,92.64
2018-04-22T04:15:34.551Z,92.64
2018-04-22T04:16:34.666Z,92.64
2018-04-22T04:17:34.510Z,92.25
2018-04-22T04:18:34.580Z,91.88
2018-04-22T04:19:34.468Z,92.83
2018-04-22T04:20:34.590Z,92.07
2018-04-22T04:21:34.421Z,92.16
2018-04-22T04:22:34.501Z,91.88
2018-04-22T04:23:34.381Z,92.45
2018-04-22T04:24:34.514Z,92.25
2018-04-22T04:25:34.339Z,92.93
2018-04-22T04:26:34.426Z,92.45
2018-04-22T04:27:34.296Z,92.35
2018-04-22T04:28:34.441Z,92.64
2018-04-22T04:29:34.251Z,92.54
2018-04-22T04:30:34.351Z,92.64
2018-04-22T04:31:34.207Z,92.74
2018-04-22T04:32:34.263Z,92.74
2018-04-22T04:33:34.166Z,93.31
2018-04-22T04:34:34.280Z,93.21
2018-04-22T04:35:34.121Z,93.12
2018-04-22T04:36:34.190Z,93.12
2018-04-22T04:37:34.083Z,93.21
2018-04-22T04:38:34.202Z,92.74
2018-04-22T04:39:34.033Z,92.83
2018-04-22T04:40:34.117Z,92.93
2018-04-22T04:41:33.991Z,93.21
2018-04-22T04:42:34.127Z,92.93
2018-04-22T04:43:33.949Z,93.21
2018-04-22T04:44:34.039Z,92.54
2018-04-22T04:45:33.906Z,93.21
2018-04-22T04:46:34.058Z,93.21
2018-04-22T04:47:33.862Z,92.45
2018-04-22T04:48:33.967Z,92.64
2018-04-22T04:49:33.818Z,92.93
2018-04-22T04:50:33.980Z,93.69
2018-04-22T04:51:33.777Z,93.40
2018-04-22T04:52:33.893Z,92.93
2018-04-22T04:53:33.735Z,93.31
2018-04-22T04:54:33.806Z,93.12
2018-04-22T04:55:33.695Z,92.93
2018-04-22T04:56:33.819Z,93.98
2018-04-22T04:57:33.645Z,93.88
2018-04-22T04:58:33.733Z,93.12
2018-04-22T04:59:33.603Z,92.83
2018-04-22T05:00:33.743Z,93.02
2018-04-22T05:01:33.561Z,92.64
2018-04-22T05:02:33.655Z,92.83
2018-04-22T05:03:33.517Z,93.21
2018-04-22T05:04:33.668Z,93.88
2018-04-22T05:05:33.471Z,93.79
2018-04-22T05:06:33.580Z,93.69
2018-04-22T05:07:33.431Z,93.79
2018-04-22T05:08:33.597Z,93.31
2018-04-22T05:09:33.387Z,93.21
2018-04-22T05:10:33.506Z,93.12
2018-04-22T05:11:33.344Z,93.69
2018-04-22T05:12:33.521Z,93.02
2018-04-22T05:13:33.306Z,93.12
2018-04-22T05:14:33.472Z,93.40
2018-04-22T05:15:33.257Z,93.79
2018-04-22T05:16:33.344Z,94.07
2018-04-22T05:17:33.217Z,94.36
2018-04-22T05:18:33.358Z,93.88
2018-04-22T05:19:33.173Z,94.26
2018-04-22T05:20:33.269Z,94.55
2018-04-22T05:21:33.129Z,94.46
2018-04-22T05:22:33.289Z,94.26
2018-04-22T05:23:33.084Z,94.46
2018-04-22T05:24:33.197Z,94.07
2018-04-22T05:25:33.043Z,94.17
2018-04-22T05:26:33.216Z,94.17
2018-04-22T05:27:32.998Z,93.88
2018-04-22T05:28:33.123Z,93.50
2018-04-22T05:29:32.955Z,94.07
2018-04-22T05:30:33.136Z,94.46
2018-04-22T05:31:32.912Z,94.12
2018-04-22T05:32:33.052Z,93.60
2018-04-22T05:33:32.870Z,94.31
2018-04-22T05:34:33.060Z,93.84
2018-04-22T05:35:32.825Z,93.26
2018-04-22T05:36:32.920Z,92.97
2018-04-22T05:37:32.783Z,93.07
2018-04-22T05:38:32.894Z,93.84
2018-04-22T05:39:32.743Z,93.93
2018-04-22T05:40:32.802Z,93.26
2018-04-22T05:41:32.699Z,92.88
2018-04-22T05:42:32.714Z,93.74
2018-04-22T05:43:32.654Z,93.07
2018-04-22T05:44:32.728Z,92.88
2018-04-22T05:45:32.610Z,92.97
2018-04-22T05:46:32.640Z,92.69
2018-04-22T05:47:32.568Z,91.73
2018-04-22T05:48:32.653Z,92.21
2018-04-22T05:49:32.524Z,92.11
2018-04-22T05:50:32.562Z,91.92
2018-04-22T05:51:32.482Z,91.77
2018-04-22T05:52:32.575Z,92.59
2018-04-22T05:53:32.442Z,92.83
2018-04-22T05:54:32.491Z,92.35
2018-04-22T05:55:32.396Z,92.92
2018-04-22T05:56:32.501Z,92.73
2018-04-22T05:57:32.358Z,92.35
2018-04-22T05:58:32.414Z,91.97
2018-04-22T05:59:32.323Z,91.97
2018-04-22T06:00:32.428Z,91.49
2018-04-22T06:01:32.275Z,90.53
2018-04-22T06:02:32.338Z,90.53
2018-04-22T06:03:32.234Z,91.49
2018-04-22T06:04:32.251Z,91.92
2018-04-22T06:05:32.185Z,91.63
2018-04-22T06:06:32.270Z,91.34
2018-04-22T06:07:32.148Z,91.05
2018-04-22T06:08:32.206Z,91.44
2018-04-22T06:09:32.100Z,90.77
2018-04-22T06:10:32.189Z,91.53
2018-04-22T06:11:32.060Z,91.72
2018-04-22T06:12:32.105Z,91.53
2018-04-22T06:13:32.016Z,91.44
2018-04-22T06:14:32.117Z,90.86
2018-04-22T06:15:31.975Z,90.91
2018-04-22T06:16:32.029Z,90.33
2018-04-22T06:17:31.932Z,90.39
2018-04-22T06:18:32.040Z,90.23
2018-04-22T06:19:31.892Z,90.14
2018-04-22T06:20:31.954Z,89.95
2018-04-22T06:21:31.845Z,90.14
2018-04-22T06:22:31.965Z,89.95
2018-04-22T06:23:31.809Z,90.23
2018-04-22T06:24:31.881Z,89.86
2018-04-22T06:25:31.767Z,89.37
2018-04-22T06:26:31.893Z,89.18
2018-04-22T06:27:31.721Z,89.66
2018-04-22T06:28:31.803Z,89.90
2018-04-22T06:29:31.679Z,89.37
2018-04-22T06:30:31.817Z,89.90
2018-04-22T06:31:31.639Z,89.90
2018-04-22T06:32:31.729Z,90.19
2018-04-22T06:33:31.644Z,90.00
2018-04-22T06:34:31.742Z,89.61
2018-04-22T06:35:31.557Z,89.61
2018-04-22T06:36:31.653Z,89.90
2018-04-22T06:37:31.515Z,89.51
2018-04-22T06:38:31.566Z,89.61
2018-04-22T06:39:31.470Z,89.71
2018-04-22T06:40:31.582Z,89.61
2018-04-22T06:41:31.433Z,88.75
2018-04-22T06:42:31.490Z,89.04
2018-04-22T06:43:31.391Z,88.94
2018-04-22T06:44:31.509Z,89.13
2018-04-22T06:45:31.345Z,88.84
2018-04-22T06:46:31.420Z,89.08
2018-04-22T06:47:31.305Z,89.27
2018-04-22T06:48:31.433Z,88.51
2018-04-22T06:49:31.264Z,88.41
2018-04-22T06:50:31.344Z,88.41
2018-04-22T06:51:31.228Z,88.79
2018-04-22T06:52:31.358Z,88.60
2018-04-22T06:53:31.197Z,88.60
2018-04-22T06:54:31.271Z,88.79
2018-04-22T06:55:31.140Z,88.70
2018-04-22T06:56:31.281Z,88.79
2018-04-22T06:57:31.101Z,88.22
2018-04-22T06:58:31.197Z,88.22
2018-04-22T06:59:31.063Z,88.31
2018-04-22T07:00:31.209Z,88.02
2018-04-22T07:01:31.017Z,88.51
2018-04-22T07:02:31.122Z,87.88
2018-04-22T07:03:30.978Z,87.68
2018-04-22T07:04:31.137Z,87.88
2018-04-22T07:05:30.936Z,87.40
2018-04-22T07:06:31.046Z,87.21
2018-04-22T07:07:30.900Z,87.01
2018-04-22T07:08:31.060Z,86.82
2018-04-22T07:09:30.856Z,86.92
2018-04-22T07:10:30.972Z,87.30
2018-04-22T07:11:30.818Z,86.96
2018-04-22T07:12:30.986Z,86.54
2018-04-22T07:13:30.774Z,85.81
2018-04-22T07:14:30.815Z,86.00
2018-04-22T07:15:30.739Z,86.00
2018-04-22T07:16:30.913Z,86.00
2018-04-22T07:17:30.703Z,86.10
2018-04-22T07:18:30.823Z,85.62
2018-04-22T07:19:30.654Z,85.33
2018-04-22T07:20:30.838Z,84.37
2018-04-22T07:21:30.615Z,84.85
2018-04-22T07:22:30.749Z,84.41
2018-04-22T07:23:30.575Z,84.41
2018-04-22T07:24:30.663Z,84.22
2018-04-22T07:25:30.535Z,84.70
2018-04-22T07:26:30.677Z,84.99
2018-04-22T07:27:30.499Z,85.37
2018-04-22T07:28:30.585Z,84.70
2018-04-22T07:29:30.457Z,83.74
2018-04-22T07:30:30.600Z,83.26
2018-04-22T07:31:30.419Z,83.26
2018-04-22T07:32:30.513Z,83.07
2018-04-22T07:33:30.374Z,83.26
2018-04-22T07:34:30.531Z,83.64
2018-04-22T07:35:30.339Z,84.26
2018-04-22T07:36:30.439Z,82.92
2018-04-22T07:37:30.298Z,82.63
2018-04-22T07:38:30.482Z,83.11
2018-04-22T07:39:30.260Z,83.11
2018-04-22T07:40:30.365Z,81.86
2018-04-22T07:41:30.217Z,82.73
2018-04-22T07:42:30.319Z,82.19
2018-04-22T07:43:30.179Z,80.36
2018-04-22T07:44:30.191Z,80.17
2018-04-22T07:45:30.141Z,80.07
2018-04-22T07:46:31.229Z,80.65
2018-04-22T07:47:30.104Z,80.07
2018-04-22T07:48:30.114Z,78.63
2018-04-22T07:49:30.065Z,77.96
2018-04-22T07:50:30.129Z,78.53
2018-04-22T07:51:30.025Z,79.15
2018-04-22T07:52:30.045Z,78.67
2018-04-22T07:53:29.990Z,78.86
2018-04-22T07:54:30.055Z,78.58
2018-04-22T07:55:29.945Z,77.33
2018-04-22T07:56:29.966Z,77.13
2018-04-22T07:57:29.912Z,78.09
2018-04-22T07:58:29.980Z,78.33
2018-04-22T07:59:29.871Z,78.61
2018-04-22T08:00:29.895Z,78.61
2018-04-22T08:01:29.833Z,75.63
2018-04-22T08:02:29.905Z,75.34
2018-04-22T08:03:29.793Z,74.57
2018-04-22T08:04:29.845Z,75.05
2018-04-22T08:05:29.759Z,75.54
2018-04-22T08:06:29.740Z,76.98
2018-04-22T08:07:29.720Z,75.96
2018-04-22T08:08:29.718Z,74.13
2018-04-22T08:09:29.683Z,73.55
2018-04-22T08:10:29.732Z,74.99
2018-04-22T08:11:29.644Z,75.67
2018-04-22T08:12:29.639Z,74.03
2018-04-22T08:13:29.607Z,73.78
2018-04-22T08:14:29.659Z,73.78
2018-04-22T08:15:29.569Z,72.63
2018-04-22T08:16:29.663Z,72.05
2018-04-22T08:17:29.536Z,71.76
2018-04-22T08:18:29.574Z,71.37
2018-04-22T08:19:29.495Z,72.81
2018-04-22T08:20:29.588Z,70.98
2018-04-22T08:21:29.459Z,70.54
2018-04-22T08:22:29.494Z,71.31
2018-04-22T08:23:29.419Z,71.50
2018-04-22T08:24:29.507Z,71.70
2018-04-22T08:25:29.387Z,72.37
2018-04-22T08:26:29.417Z,71.50
2018-04-22T08:27:29.348Z,71.12
2018-04-22T08:28:29.486Z,71.70
2018-04-22T08:29:29.312Z,71.70
2018-04-22T08:30:29.340Z,71.22
2018-04-22T08:31:29.273Z,70.57
2018-04-22T08:32:29.356Z,71.25
2018-04-22T08:33:29.239Z,70.09
2018-04-22T08:34:29.262Z,71.92
2018-04-22T08:35:29.202Z,70.00
2018-04-22T08:36:29.275Z,69.71
2018-04-22T08:37:29.170Z,69.61
2018-04-22T08:38:29.187Z,69.03
2018-04-22T08:39:29.129Z,70.09
2018-04-22T08:40:29.203Z,70.09
2018-04-22T08:41:29.096Z,69.84
2018-04-22T08:42:29.109Z,70.22
2018-04-22T08:43:29.061Z,68.68
2018-04-22T08:44:29.122Z,68.19
2018-04-22T08:45:29.021Z,68.59
2018-04-22T08:46:29.033Z,68.39
2018-04-22T08:47:28.989Z,68.29
2018-04-22T08:48:29.049Z,69.35
2018-04-22T08:49:28.951Z,68.97
2018-04-22T08:50:28.958Z,67.91
2018-04-22T08:51:28.919Z,68.91
2018-04-22T08:52:28.968Z,67.36
2018-04-22T08:53:28.881Z,68.23
2018-04-22T08:54:28.979Z,68.13
2018-04-22T08:55:28.848Z,69.00
2018-04-22T08:56:28.889Z,68.91
2018-04-22T08:57:28.825Z,68.33
2018-04-22T08:58:28.902Z,68.33
2018-04-22T08:59:28.778Z,67.49
2018-04-22T09:00:28.812Z,66.82
2018-04-22T09:01:28.745Z,66.33
2018-04-22T09:02:28.822Z,66.91
2018-04-22T09:03:28.712Z,65.88
2018-04-22T09:04:28.732Z,66.17
2018-04-22T09:05:28.675Z,66.08
2018-04-22T09:06:28.748Z,64.08
2018-04-22T09:07:28.630Z,62.53
2018-04-22T09:08:28.657Z,63.50
2018-04-22T09:09:28.611Z,65.08
2018-04-22T09:10:28.667Z,66.33
2018-04-22T09:11:28.576Z,64.40
2018-04-22T09:12:28.582Z,62.98
2018-04-22T09:13:28.543Z,62.11
2018-04-22T09:14:28.592Z,62.01
2018-04-22T09:15:28.510Z,63.66
2018-04-22T09:16:28.662Z,63.59
2018-04-22T09:17:28.475Z,62.14
2018-04-22T09:18:28.516Z,61.49
2018-04-22T09:19:28.444Z,60.91
2018-04-22T09:20:28.530Z,61.04
2018-04-22T09:21:28.408Z,58.36
2018-04-22T09:22:28.441Z,58.45
2018-04-22T09:23:28.377Z,58.36
2018-04-22T09:24:28.454Z,57.55
2018-04-22T09:25:28.344Z,58.11
2018-04-22T09:26:28.366Z,60.17
2018-04-22T09:27:28.314Z,59.00
2018-04-22T09:28:28.376Z,58.91
2018-04-22T09:29:28.279Z,57.36
2018-04-22T09:30:28.287Z,57.65
2018-04-22T09:31:28.248Z,56.68
2018-04-22T09:32:28.296Z,57.55
2018-04-22T09:33:28.239Z,59.42
2018-04-22T09:34:28.305Z,57.68
2018-04-22T09:35:28.187Z,57.17
2018-04-22T09:36:28.217Z,57.29
2018-04-22T09:37:28.160Z,56.13
2018-04-22T09:38:28.228Z,55.64
2018-04-22T09:39:28.127Z,55.74
2018-04-22T09:40:28.143Z,55.35
2018-04-22T09:41:28.100Z,56.03
2018-04-22T09:42:28.147Z,55.54
2018-04-22T09:43:28.067Z,55.93
2018-04-22T09:44:28.055Z,56.71
2018-04-22T09:45:28.036Z,55.26
2018-04-22T09:46:28.074Z,54.77
2018-04-22T09:47:28.011Z,55.26
2018-04-22T09:48:28.087Z,55.83
2018-04-22T09:49:27.982Z,56.68
2018-04-22T09:50:27.997Z,57.87
2018-04-22T09:51:27.947Z,57.36
2018-04-22T09:52:28.008Z,55.83
2018-04-22T09:53:27.965Z,55.83
2018-04-22T09:54:27.949Z,56.71
2018-04-22T09:55:27.890Z,55.83
2018-04-22T09:56:27.931Z,57.00
2018-04-22T09:57:27.861Z,56.13
2018-04-22T09:58:27.944Z,55.26
2018-04-22T09:59:27.832Z,54.90
2018-04-22T10:00:27.852Z,53.44
2018-04-22T10:01:27.801Z,53.73
2018-04-22T10:02:27.866Z,53.92
2018-04-22T10:03:27.778Z,56.05
2018-04-22T10:04:27.777Z,55.47
2018-04-22T10:05:27.745Z,53.95
2018-04-22T10:06:27.789Z,55.11
2018-04-22T10:07:27.721Z,55.50
2018-04-22T10:08:27.799Z,55.02
2018-04-22T10:09:27.688Z,54.92
2018-04-22T10:10:27.714Z,54.82
2018-04-22T10:11:27.663Z,53.75
2018-04-22T10:12:27.727Z,53.27
2018-04-22T10:13:27.634Z,53.59
2018-04-22T10:14:27.650Z,53.78
2018-04-22T10:15:27.675Z,53.39
2018-04-22T10:16:27.601Z,54.46
2018-04-22T10:17:27.686Z,54.17
2018-04-22T10:18:27.567Z,53.59
2018-04-22T10:19:27.553Z,51.55
2018-04-22T10:20:27.539Z,52.33
2018-04-22T10:21:27.613Z,52.62
2018-04-22T10:22:27.514Z,54.36
2018-04-22T10:23:27.627Z,56.04
2018-04-22T10:24:27.482Z,52.74
2018-04-22T10:25:27.569Z,53.81
2018-04-22T10:26:27.455Z,53.64
2018-04-22T10:27:27.563Z,51.79
2018-04-22T10:28:27.434Z,50.99
2018-04-22T10:29:27.577Z,52.09
2018-04-22T10:30:27.406Z,49.95
2018-04-22T10:31:27.478Z,51.01
2018-04-22T10:32:27.380Z,52.06
2018-04-22T10:33:27.496Z,52.25
2018-04-22T10:34:27.351Z,53.54
2018-04-22T10:35:27.403Z,52.21
2018-04-22T10:36:27.326Z,50.87
2018-04-22T10:37:27.423Z,49.73
2018-04-22T10:38:27.298Z,49.05
2018-04-22T10:39:27.437Z,50.02
2018-04-22T10:40:27.277Z,49.66
2018-04-22T10:41:27.341Z,50.63
2018-04-22T10:42:27.256Z,50.07
2018-04-22T10:43:27.365Z,49.90
2018-04-22T10:44:27.230Z,46.66
2018-04-22T10:45:27.380Z,46.73
2018-04-22T10:46:27.201Z,47.03
2018-04-22T10:47:27.292Z,46.73
2018-04-22T10:48:27.177Z,46.25
2018-04-22T10:49:27.305Z,47.03
2018-04-22T10:50:27.150Z,47.90
2018-04-22T10:51:27.313Z,48.46
2018-04-22T10:52:27.125Z,46.91
2018-04-22T10:53:27.230Z,46.61
2018-04-22T10:54:27.103Z,46.81
2018-04-22T10:55:27.139Z,47.59
2018-04-22T10:56:27.079Z,46.20
2018-04-22T10:57:27.146Z,48.03
2018-04-22T10:58:27.056Z,48.25
2018-04-22T10:59:27.056Z,47.56
2018-04-22T11:00:27.035Z,47.17
2018-04-22T11:01:27.072Z,46.88
2018-04-22T11:02:27.012Z,46.98
2018-04-22T11:03:26.999Z,46.69
2018-04-22T11:04:26.982Z,48.15
2018-04-22T11:05:26.995Z,47.98
2018-04-22T11:06:26.958Z,46.88
2018-04-22T11:07:27.011Z,47.56
2018-04-22T11:08:26.935Z,46.50
2018-04-22T11:09:26.926Z,47.05
2018-04-22T11:10:26.931Z,47.15
2018-04-22T11:11:26.899Z,51.07
2018-04-22T11:12:26.943Z,49.05
2018-04-22T11:13:26.902Z,49.17
2018-04-22T11:14:26.957Z,46.86
2018-04-22T11:15:26.853Z,46.37
2018-04-22T11:16:26.869Z,49.22
2018-04-22T11:17:26.828Z,47.19
2018-04-22T11:18:26.885Z,48.97
2018-04-22T11:19:26.811Z,46.66
2018-04-22T11:20:26.899Z,45.87
2018-04-22T11:21:26.782Z,46.19
2018-04-22T11:22:26.822Z,42.60
2018-04-22T11:23:26.758Z,43.87
2018-04-22T11:24:26.838Z,43.77
2018-04-22T11:25:26.737Z,44.48
2018-04-22T11:26:26.830Z,43.49
2018-04-22T11:27:26.742Z,44.18
2018-04-22T11:28:26.756Z,40.64
2018-04-22T11:29:26.695Z,44.16
2018-04-22T11:30:26.763Z,44.74
2018-04-22T11:31:26.672Z,46.31
2018-04-22T11:32:26.674Z,45.45
2018-04-22T11:33:26.649Z,43.20
2018-04-22T11:34:26.696Z,44.10
2018-04-22T11:35:26.630Z,42.44
2018-04-22T11:36:26.702Z,42.15
2018-04-22T11:37:26.611Z,43.24
2018-04-22T11:38:26.613Z,43.15
2018-04-22T11:39:26.589Z,44.42
2018-04-22T11:40:26.632Z,45.10
2018-04-22T11:41:26.568Z,43.76
2018-04-22T11:42:26.643Z,41.58
2018-04-22T11:43:26.548Z,38.14
2018-04-22T11:44:26.556Z,38.71
2018-04-22T11:45:26.528Z,39.47
2018-04-22T11:46:26.569Z,38.48
2018-04-22T11:47:26.512Z,40.89
2018-04-22T11:48:26.587Z,42.55
2018-04-22T11:49:26.488Z,41.15
2018-04-22T11:50:26.495Z,40.72
2018-04-22T11:51:26.469Z,41.86
2018-04-22T11:52:26.508Z,43.40
2018-04-22T11:53:26.447Z,45.45
2018-04-22T11:54:26.522Z,45.15
2018-04-22T11:55:26.428Z,46.13
2018-04-22T11:56:26.438Z,45.25
2018-04-22T11:57:26.408Z,45.54
2018-04-22T11:58:26.448Z,45.84
2018-04-22T11:59:26.396Z,46.51
2018-04-22T12:00:26.462Z,46.23
2018-04-22T12:01:26.367Z,46.11
2018-04-22T12:02:26.397Z,45.42
2018-04-22T12:03:26.350Z,46.88
2018-04-22T12:04:26.388Z,46.18
2018-04-22T12:05:26.357Z,46.47
2018-04-22T12:06:26.449Z,47.13
2018-04-22T12:07:26.303Z,47.71
2018-04-22T12:08:26.315Z,49.73
2018-04-22T12:09:26.281Z,49.73
2018-04-22T12:10:26.327Z,50.29
2018-04-22T12:11:26.261Z,49.80
2018-04-22T12:12:26.342Z,49.77
2018-04-22T12:13:26.236Z,51.81
2018-04-22T12:14:26.255Z,51.91
2018-04-22T12:15:26.214Z,52.47
2018-04-22T12:16:26.267Z,53.53
2018-04-22T12:17:26.188Z,54.99
2018-04-22T12:18:26.289Z,53.83
2018-04-22T12:19:26.191Z,56.93
2018-04-22T12:20:26.232Z,55.47
2018-04-22T12:21:26.140Z,57.22
2018-04-22T12:22:26.208Z,56.64
2018-04-22T12:23:26.116Z,57.70
2018-04-22T12:24:26.119Z,58.39
2018-04-22T12:25:26.105Z,58.67
2018-04-22T12:26:26.134Z,59.26
2018-04-22T12:27:26.066Z,59.45
2018-04-22T12:28:26.151Z,59.94
2018-04-22T12:29:26.043Z,60.23
2018-04-22T12:30:26.059Z,60.25
2018-04-22T12:31:26.019Z,59.38
2018-04-22T12:32:26.074Z,59.77
2018-04-22T12:33:25.993Z,60.38
2018-04-22T12:34:26.087Z,59.64
2018-04-22T12:35:25.969Z,58.28
2018-04-22T12:36:25.997Z,59.28
2018-04-22T12:37:25.943Z,59.21
2018-04-22T12:38:26.013Z,58.17
2018-04-22T12:39:25.918Z,56.32
2018-04-22T12:40:25.933Z,54.60
2018-04-22T12:41:25.894Z,53.81
2018-04-22T12:42:25.938Z,54.03
2018-04-22T12:43:25.873Z,55.23
2018-04-22T12:44:25.953Z,54.55
2018-04-22T12:45:25.848Z,52.92
2018-04-22T12:46:25.866Z,54.11
2018-04-22T12:47:25.826Z,52.48
2018-04-22T12:48:25.877Z,53.95
2018-04-22T12:49:25.805Z,49.76
2018-04-22T12:50:25.893Z,49.17
2018-04-22T12:51:25.781Z,48.10
2018-04-22T12:52:25.805Z,47.88